.
WxDataArchive / Data Records for 2007-04-04
2007-04-03 April 2007 2007-04-05

Data Records for Wednesday, 04 April 2007

Time	Temp	Chill	HIndex	Humid	Dewpt	 Wind 	HiWind	WindDir	Rain 	Barom 
-----	----	-----	------	-----	-----	------	------	-------	-----	----- 
00:00	58.4	58.4	58.4	78	51.6	4	12	270	0.00	29.592 
00:05	58.3	58.3	58.3	78	51.5	5	16	270	0.00	29.594 
00:10	57.5	57.5	57.5	79	51.0	5	9	270	0.00	29.600 
00:15	56.6	56.6	56.6	81	50.8	6	13	270	0.00	29.606 
00:20	55.9	55.9	55.9	82	50.5	5	11	270	0.00	29.609 
00:25	54.7	54.7	54.7	83	49.6	7	16	270	0.00	29.616 
00:30	53.8	53.8	53.8	84	49.1	5	10	270	0.00	29.625 
00:35	52.8	52.8	52.8	83	47.8	6	12	270	0.00	29.629 
00:40	51.9	51.9	51.9	84	47.2	5	16	270	0.00	29.644 
00:45	50.4	50.4	50.4	84	45.7	8	19	270	0.00	29.645 
00:50	49.8	48.0	49.8	85	45.5	5	13	270	0.00	29.648 
00:55	49.4	47.5	49.4	85	45.1	5	13	270	0.00	29.647 
01:00	48.9	46.4	48.9	85	44.6	6	15	270	0.00	29.658 
01:05	48.5	45.9	48.5	85	44.2	6	13	270	0.00	29.662 
01:10	47.9	44.7	47.9	86	43.9	7	15	270	0.00	29.662 
01:15	47.4	45.2	47.4	86	43.4	5	12	270	0.00	29.663 
01:20	47.1	44.8	47.1	86	43.1	5	10	270	0.00	29.665 
01:25	47.0	45.4	47.0	87	43.3	4	6	270	0.00	29.669 
01:30	46.7	44.3	46.7	85	42.4	5	12	270	0.00	29.671 
01:35	46.2	43.8	46.2	85	41.9	5	9	270	0.00	29.671 
01:40	46.0	42.9	46.0	83	41.1	6	12	270	0.00	29.678 
01:45	45.7	42.5	45.7	81	40.2	6	14	270	0.00	29.678 
01:50	45.5	42.9	45.5	79	39.4	5	15	270	0.00	29.680 
01:55	45.2	42.6	45.2	79	39.1	5	12	270	0.00	29.682 
02:00	44.6	41.2	44.6	77	37.8	6	12	270	0.00	29.683 
02:05	43.9	39.3	43.9	77	37.2	8	17	270	0.00	29.687 
02:10	43.5	39.9	43.5	77	36.8	6	17	270	0.00	29.690 
02:15	43.2	39.6	43.2	77	36.5	6	13	270	0.00	29.696 
02:20	42.9	39.9	42.9	76	35.9	5	15	270	0.00	29.700 
02:25	42.8	39.8	42.8	76	35.8	5	12	270	0.00	29.701 
02:30	42.5	39.4	42.5	77	35.8	5	12	270	0.00	29.702 
02:35	42.3	38.5	42.3	76	35.3	6	19	270	0.00	29.703 
02:40	42.2	39.1	42.2	75	34.9	5	10	270	0.00	29.709 
02:45	42.1	38.9	42.1	75	34.8	5	13	270	0.00	29.715 
02:50	41.6	38.4	41.6	74	33.9	5	12	270	0.00	29.716 
02:55	41.3	38.0	41.3	75	34.0	5	13	270	0.00	29.716 
03:00	41.2	37.2	41.2	75	33.9	6	15	270	0.00	29.718 
03:05	40.9	36.8	40.9	75	33.6	6	18	270	0.00	29.724 
03:10	40.8	37.4	40.8	76	33.8	5	14	270	0.00	29.725 
03:15	40.5	37.1	40.5	76	33.5	5	10	270	0.00	29.725 
03:20	39.9	36.4	39.9	75	32.6	5	15	270	0.00	29.726 
03:25	39.5	35.2	39.5	74	31.9	6	11	270	0.00	29.729 
03:30	39.2	34.8	39.2	74	31.6	6	14	270	0.00	29.727 
03:35	38.9	34.4	38.9	74	31.3	6	12	270	0.00	29.728 
03:40	38.9	35.2	38.9	74	31.3	5	10	270	0.00	29.735 
03:45	38.8	35.1	38.8	74	31.2	5	12	270	0.00	29.734 
03:50	38.6	34.8	38.6	74	31.0	5	12	270	0.00	29.730 
03:55	38.3	34.5	38.3	75	31.1	5	12	270	0.00	29.734 
04:00	38.2	35.2	38.2	75	31.0	4	10	270	0.00	29.740 
04:05	37.9	34.9	37.9	74	30.4	4	11	270	0.00	29.744 
04:10	37.6	33.7	37.6	74	30.1	5	11	270	0.00	29.750 
04:15	37.5	33.5	37.5	74	30.0	5	10	270	0.00	29.753 
04:20	37.2	33.2	37.2	73	29.4	5	15	270	0.00	29.758 
04:25	37.0	32.9	37.0	73	29.2	5	11	270	0.00	29.758 
04:30	36.9	32.8	36.9	73	29.1	5	12	270	0.00	29.760 
04:35	36.8	32.7	36.8	74	29.3	5	10	270	0.00	29.760 
04:40	36.5	32.4	36.5	73	28.7	5	11	270	0.00	29.761 
04:45	36.3	33.0	36.3	74	28.8	4	10	270	0.00	29.764 
04:50	36.3	36.3	36.3	74	28.8	3	7	292	0.00	29.766 
04:55	36.2	32.0	36.2	73	28.4	5	10	270	0.00	29.772 
05:00	36.0	31.8	36.0	71	27.5	5	12	270	0.00	29.776 
05:05	35.9	30.9	35.9	71	27.4	6	12	270	0.00	29.775 
05:10	35.9	31.7	35.9	71	27.4	5	10	270	0.00	29.776 
05:15	35.8	30.8	35.8	70	27.0	6	12	270	0.00	29.778 
05:20	35.6	31.3	35.6	71	27.1	5	14	270	0.00	29.777 
05:25	35.6	32.2	35.6	72	27.5	4	9	270	0.00	29.783 
05:30	35.6	32.2	35.6	73	27.8	4	9	270	0.00	29.785 
05:35	35.5	32.1	35.5	74	28.0	4	13	270	0.00	29.782 
05:40	35.3	30.2	35.3	74	27.9	6	15	270	0.00	29.790 
05:45	35.2	30.8	35.2	74	27.8	5	14	270	0.00	29.790 
05:50	35.3	31.9	35.3	74	27.9	4	9	270	0.00	29.789 
05:55	35.3	31.9	35.3	74	27.9	4	10	270	0.00	29.789 
06:00	35.3	31.0	35.3	73	27.5	5	16	270	0.00	29.787 
06:05	35.2	30.0	35.2	73	27.4	6	16	270	0.00	29.792 
06:10	35.2	30.8	35.2	73	27.4	5	14	270	0.00	29.794 
06:15	35.2	30.8	35.2	73	27.4	5	14	270	0.00	29.792 
06:20	35.0	29.1	35.0	73	27.2	7	17	270	0.00	29.794 
06:25	35.0	30.6	35.0	73	27.2	5	14	270	0.00	29.795 
06:30	34.9	29.7	34.9	73	27.1	6	15	270	0.00	29.796 
06:35	34.9	30.5	34.9	74	27.5	5	16	270	0.00	29.797 
06:40	34.7	30.2	34.7	74	27.3	5	14	270	0.00	29.800 
06:45	34.4	28.4	34.4	73	26.7	7	15	270	0.00	29.807 
06:50	34.3	28.3	34.3	73	26.6	7	16	270	0.00	29.810 
06:55	34.1	28.7	34.1	74	26.7	6	17	270	0.00	29.810 
07:00	34.1	28.7	34.1	73	26.4	6	12	270	0.00	29.811 
07:05	34.0	28.6	34.0	73	26.3	6	13	270	0.00	29.811 
07:10	34.0	30.4	34.0	73	26.3	4	9	270	0.00	29.813 
07:15	33.8	30.2	33.8	74	26.4	4	11	270	0.00	29.812 
07:20	33.8	29.2	33.8	73	26.1	5	12	270	0.00	29.816 
07:25	33.7	30.0	33.7	73	26.0	4	12	270	0.00	29.817 
07:30	33.8	30.2	33.8	73	26.1	4	11	270	0.00	29.813 
07:35	33.7	28.3	33.7	74	26.3	6	12	270	0.00	29.814 
07:40	33.7	28.3	33.7	73	26.0	6	16	270	0.00	29.814 
07:45	33.7	29.1	33.7	74	26.3	5	15	270	0.00	29.820 
07:50	33.7	30.0	33.7	73	26.0	4	10	270	0.00	29.823 
07:55	33.7	33.7	33.7	72	25.7	3	7	270	0.00	29.827 
08:00	33.5	28.0	33.5	71	25.1	6	13	270	0.00	29.827 
08:05	33.4	27.9	33.4	71	25.0	6	15	270	0.00	29.831 
08:10	33.2	27.7	33.2	71	24.8	6	15	270	0.00	29.835 
08:15	33.1	27.5	33.1	73	25.4	6	13	270	0.00	29.834 
08:20	33.1	29.3	33.1	73	25.4	4	11	270	0.00	29.838 
08:25	33.1	29.3	33.1	73	25.4	4	11	270	0.00	29.832 
08:30	33.1	28.4	33.1	73	25.4	5	14	270	0.00	29.832 
08:35	33.1	29.3	33.1	73	25.4	4	11	270	0.00	29.833 
08:40	33.1	27.5	33.1	73	25.4	6	12	270	0.00	29.832 
08:45	33.1	28.4	33.1	72	25.1	5	16	270	0.00	29.830 
08:50	33.4	27.9	33.4	71	25.0	6	16	270	0.00	29.832 
08:55	33.5	29.8	33.5	73	25.8	4	11	270	0.00	29.833 
09:00	33.1	28.4	33.1	76	26.4	5	16	270	0.00	29.837 
09:05	32.7	27.9	32.7	76	26.0	5	14	270	0.00	29.840 
09:10	32.7	28.9	32.7	76	26.0	4	13	270	0.00	29.839 
09:15	32.8	32.8	32.8	78	26.7	3	9	270	0.00	29.843 
09:20	32.8	29.0	32.8	78	26.7	4	11	270	0.00	29.844 
09:25	32.8	28.0	32.8	79	27.0	5	11	270	0.00	29.846 
09:30	32.9	28.1	32.9	77	26.5	5	14	270	0.00	29.848 
09:35	33.2	29.5	33.2	77	26.8	4	10	270	0.00	29.847 
09:40	33.5	28.8	33.5	73	25.8	5	15	270	0.00	29.846 
09:45	33.7	29.1	33.7	72	25.7	5	11	270	0.00	29.850 
09:50	34.0	30.4	34.0	74	26.6	4	6	270	0.00	29.850 
09:55	33.5	28.8	33.5	74	26.1	5	10	270	0.00	29.855 
10:00	32.9	27.3	32.9	74	25.5	6	21	270	0.00	29.859 
10:05	33.1	28.4	33.1	73	25.4	5	11	270	0.00	29.860 
10:10	33.2	28.5	33.2	71	24.8	5	15	270	0.00	29.862 
10:15	33.2	27.7	33.2	68	23.8	6	13	270	0.00	29.861 
10:20	33.2	27.7	33.2	67	23.4	6	16	270	0.00	29.864 
10:25	33.4	28.7	33.4	68	24.0	5	13	270	0.00	29.863 
10:30	33.4	27.9	33.4	67	23.6	6	15	270	0.00	29.863 
10:35	33.4	29.7	33.4	69	24.3	4	10	270	0.00	29.863 
10:40	33.5	29.8	33.5	71	25.1	4	9	270	0.00	29.865 
10:45	33.4	28.7	33.4	69	24.3	5	10	270	0.00	29.865 
10:50	33.4	29.7	33.4	71	25.0	4	10	270	0.00	29.867 
10:55	33.4	29.7	33.4	73	25.7	4	11	270	0.00	29.868 
11:00	33.1	28.4	33.1	73	25.4	5	16	270	0.00	29.868 
11:05	32.9	28.1	32.9	73	25.2	5	13	270	0.00	29.879 
11:10	32.9	29.1	32.9	71	24.5	4	10	270	0.00	29.878 
11:15	32.9	28.1	32.9	70	24.2	5	13	270	0.00	29.877 
11:20	32.8	27.2	32.8	69	23.8	6	12	270	0.00	29.879 
11:25	32.7	27.1	32.7	69	23.7	6	17	270	0.00	29.878 
11:30	32.7	28.9	32.7	70	24.0	4	13	270	0.00	29.879 
11:35	32.8	29.0	32.8	69	23.8	4	7	270	0.00	29.880 
11:40	33.1	33.1	33.1	69	24.1	3	6	270	0.00	29.882 
11:45	33.2	29.5	33.2	67	23.4	4	11	270	0.00	29.879 
11:50	33.2	29.5	33.2	68	23.8	4	11	270	0.00	29.880 
11:55	33.1	28.4	33.1	69	24.1	5	12	270	0.00	29.882 
12:00	33.2	28.5	33.2	69	24.2	5	16	270	0.00	29.882 
12:05	33.2	28.5	33.2	69	24.2	5	11	270	0.00	29.889 
12:10	33.2	28.5	33.2	69	24.2	5	13	270	0.00	29.889 
12:15	33.4	28.7	33.4	69	24.3	5	12	270	0.00	29.889 
12:20	33.4	29.7	33.4	69	24.3	4	11	270	0.00	29.889 
12:25	33.5	29.8	33.5	68	24.1	4	9	270	0.00	29.889 
12:30	33.7	30.0	33.7	68	24.3	4	8	270	0.00	29.892 
12:35	33.8	30.2	33.8	66	23.7	4	10	270	0.00	29.891 
12:40	34.0	30.4	34.0	66	23.9	4	13	270	0.00	29.889 
12:45	34.1	30.5	34.1	64	23.2	4	9	270	0.00	29.891 
12:50	34.3	30.7	34.3	64	23.4	4	10	270	0.00	29.895 
12:55	34.3	29.0	34.3	62	22.7	6	14	270	0.00	29.895 
13:00	34.3	30.7	34.3	62	22.7	4	10	270	0.00	29.893 
13:05	34.4	29.9	34.4	60	22.0	5	15	270	0.00	29.895 
13:10	34.4	29.9	34.4	62	22.7	5	15	270	0.00	29.896 
13:15	34.6	31.1	34.6	60	22.2	4	11	270	0.00	29.893 
13:20	34.0	27.9	34.0	64	23.1	7	19	270	0.00	29.903 
13:25	33.4	27.9	33.4	67	23.6	6	15	270	0.00	29.904 
13:30	33.4	29.7	33.4	67	23.6	4	16	270	0.00	29.906 
13:35	33.4	28.7	33.4	66	23.3	5	14	270	0.00	29.908 
13:40	32.9	26.6	32.9	66	22.8	7	17	270	0.00	29.908 
13:45	32.7	27.9	32.7	67	23.0	5	13	270	0.00	29.907 
13:50	32.7	32.7	32.7	68	23.3	3	10	270	0.00	29.910 
13:55	32.7	32.7	32.7	67	23.0	3	8	270	0.00	29.913 
14:00	32.5	28.7	32.5	67	22.8	4	10	270	0.00	29.911 
14:05	32.4	26.7	32.4	67	22.7	6	16	270	0.00	29.918 
14:10	32.2	26.5	32.2	67	22.5	6	15	270	0.00	29.924 
14:15	32.1	26.3	32.1	66	22.0	6	16	270	0.00	29.918 
14:20	32.1	26.3	32.1	66	22.0	6	13	270	0.00	29.920 
14:25	32.1	26.3	32.1	66	22.0	6	15	270	0.00	29.920 
14:30	31.8	24.6	31.8	65	21.4	8	16	270	0.00	29.921 
14:35	31.8	26.0	31.8	66	21.8	6	22	270	0.00	29.924 
14:40	31.6	25.0	31.6	65	21.2	7	18	270	0.00	29.923 
14:45	31.5	25.6	31.5	66	21.5	6	15	270	0.00	29.926 
14:50	31.3	26.3	31.3	67	21.6	5	11	270	0.00	29.927 
14:55	31.2	24.5	31.2	66	21.2	7	21	270	0.00	29.928 
15:00	31.0	25.9	31.0	67	21.3	5	14	270	0.00	29.927 
15:05	31.2	26.1	31.2	66	21.2	5	13	270	0.00	29.928 
15:10	31.2	26.1	31.2	66	21.2	5	16	270	0.00	29.931 
15:15	31.2	26.1	31.2	66	21.2	5	15	270	0.00	29.932 
15:20	31.0	25.9	31.0	65	20.6	5	11	270	0.00	29.931 
15:25	30.9	24.9	30.9	65	20.5	6	18	270	0.00	29.933 
15:30	30.7	25.5	30.7	67	21.1	5	11	270	0.00	29.934 
15:35	31.0	25.9	31.0	68	21.7	5	18	270	0.00	29.934 
15:40	31.2	26.1	31.2	68	21.9	5	16	270	0.00	29.934 
15:45	31.3	26.3	31.3	67	21.6	5	11	270	0.00	29.935 
15:50	31.3	27.3	31.3	68	22.0	4	15	270	0.00	29.935 
15:55	31.5	26.5	31.5	66	21.5	5	15	270	0.00	29.932 
16:00	31.5	26.5	31.5	65	21.1	5	9	270	0.00	29.931 
16:05	31.5	25.6	31.5	64	20.7	6	22	270	0.00	29.934 
16:10	31.5	27.5	31.5	65	21.1	4	14	270	0.00	29.934 
16:15	31.6	27.6	31.6	65	21.2	4	15	270	0.00	29.934 
16:20	31.0	25.9	31.0	64	20.3	5	17	270	0.00	29.935 
16:25	30.7	24.7	30.7	65	20.3	6	15	270	0.00	29.937 
16:30	30.6	25.4	30.6	66	20.6	5	14	270	0.00	29.938 
16:35	30.3	25.1	30.3	67	20.7	5	19	270	0.00	29.941 
16:40	30.1	25.9	30.1	69	21.2	4	10	270	0.00	29.941 
16:45	30.3	26.1	30.3	69	21.4	4	13	270	0.00	29.941 
16:50	30.4	26.2	30.4	67	20.8	4	15	270	0.00	29.943 
16:55	30.3	26.1	30.3	68	21.0	4	9	270	0.00	29.943 
17:00	30.3	30.3	30.3	69	21.4	2	7	270	0.00	29.942 
17:05	30.1	24.0	30.1	68	20.8	6	15	270	0.00	29.940 
17:10	30.3	30.3	30.3	69	21.4	3	10	270	0.00	29.946 
17:15	30.6	26.5	30.6	64	19.9	4	9	270	0.00	29.938 
17:20	30.7	26.6	30.7	62	19.2	4	12	270	0.00	29.942 
17:25	30.7	25.5	30.7	61	18.9	5	16	270	0.00	29.942 
17:30	30.7	26.6	30.7	61	18.9	4	14	270	0.00	29.943 
17:35	30.7	30.7	30.7	62	19.2	3	7	270	0.00	29.946 
17:40	30.6	26.5	30.6	64	19.9	4	12	270	0.00	29.947 
17:45	30.3	26.1	30.3	66	20.3	4	11	270	0.00	29.951 
17:50	29.8	24.5	29.8	68	20.5	5	11	270	0.00	29.953 
17:55	29.4	24.0	29.4	69	20.5	5	11	270	0.00	29.956 
18:00	29.5	29.5	29.5	69	20.6	2	7	270	0.00	29.955 
18:05	29.7	25.4	29.7	67	20.1	4	10	270	0.00	29.957 
18:10	29.7	25.4	29.7	67	20.1	4	10	270	0.00	29.958 
18:15	29.8	29.8	29.8	68	20.5	3	10	270	0.00	29.961 
18:20	29.8	29.8	29.8	67	20.2	2	4	270	0.00	29.961 
18:25	30.0	30.0	30.0	66	20.0	2	7	270	0.00	29.962 
18:30	29.8	29.8	29.8	67	20.2	3	9	270	0.00	29.965 
18:35	29.5	29.5	29.5	68	20.3	3	7	270	0.00	29.967 
18:40	28.8	24.4	28.8	73	21.3	4	12	270	0.00	29.971 
18:45	28.2	22.6	28.2	77	21.9	5	10	270	0.00	29.975 
18:50	27.8	27.8	27.8	80	22.4	3	9	270	0.00	29.976 
18:55	27.8	27.8	27.8	80	22.4	2	5	270	0.00	29.979 
19:00	27.9	27.9	27.9	77	21.6	3	8	270	0.00	29.980 
19:05	28.1	28.1	28.1	75	21.2	3	7	270	0.00	29.980 
19:10	28.2	23.7	28.2	72	20.4	4	9	270	0.00	29.981 
19:15	28.4	23.9	28.4	72	20.5	4	12	270	0.00	29.980 
19:20	28.4	28.4	28.4	71	20.2	3	7	270	0.00	29.983 
19:25	28.2	28.2	28.2	72	20.4	3	7	270	0.00	29.984 
19:30	27.9	23.3	27.9	72	20.1	4	7	292	0.00	29.984 
19:35	27.9	27.9	27.9	72	20.1	3	9	270	0.00	29.985 
19:40	27.9	23.3	27.9	71	19.7	4	13	270	0.00	29.984 
19:45	27.9	27.9	27.9	72	20.1	3	6	270	0.00	29.986 
19:50	27.8	27.8	27.8	73	20.3	3	8	270	0.00	29.988 
19:55	27.8	27.8	27.8	75	20.9	3	11	270	0.00	29.993 
20:00	27.5	22.9	27.5	76	20.9	4	11	270	0.00	29.993 
20:05	27.5	27.5	27.5	76	20.9	3	11	270	0.00	29.996 
20:10	27.5	27.5	27.5	77	21.3	2	9	270	0.00	29.999 
20:15	27.3	22.6	27.3	77	21.1	4	9	270	0.00	29.999 
20:20	27.3	27.3	27.3	77	21.1	3	12	270	0.00	29.998 
20:25	27.3	27.3	27.3	78	21.4	3	9	270	0.00	29.999 
20:30	27.2	27.2	27.2	78	21.3	3	8	270	0.00	29.999 
20:35	27.3	27.3	27.3	78	21.4	1	5	270	0.00	29.999 
20:40	27.3	27.3	27.3	77	21.1	2	6	270	0.00	29.998 
20:45	27.5	27.5	27.5	76	20.9	2	7	270	0.00	29.999 
20:50	27.6	27.6	27.6	75	20.7	2	6	270	0.00	29.999 
20:55	27.6	27.6	27.6	76	21.0	2	4	270	0.00	30.001 
21:00	27.5	27.5	27.5	77	21.3	3	7	270	0.00	30.002 
21:05	27.3	27.3	27.3	79	21.7	2	7	270	0.00	30.003 
21:10	27.2	27.2	27.2	80	21.9	2	4	270	0.00	30.003 
21:15	27.2	27.2	27.2	80	21.9	2	5	270	0.00	30.004 
21:20	27.2	27.2	27.2	80	21.9	1	5	270	0.00	30.004 
21:25	27.3	27.3	27.3	80	22.0	1	6	270	0.00	30.005 
21:30	27.3	27.3	27.3	80	22.0	1	2	248	0.00	30.010 
21:35	27.5	27.5	27.5	78	21.6	2	6	270	0.00	30.005 
21:40	27.6	27.6	27.6	75	20.7	3	6	270	0.00	30.007 
21:45	27.8	27.8	27.8	74	20.6	2	9	270	0.00	30.005 
21:50	27.8	27.8	27.8	74	20.6	2	7	270	0.00	30.003 
21:55	27.8	27.8	27.8	74	20.6	3	6	270	0.00	30.004 
22:00	27.8	27.8	27.8	74	20.6	2	5	270	0.00	30.003 
22:05	27.8	27.8	27.8	74	20.6	2	9	270	0.00	30.002 
22:10	27.8	27.8	27.8	74	20.6	1	6	270	0.00	30.001 
22:15	27.8	27.8	27.8	75	20.9	2	6	270	0.00	30.000 
22:20	27.8	27.8	27.8	74	20.6	2	9	270	0.00	29.998 
22:25	27.8	27.8	27.8	75	20.9	2	6	270	0.00	29.998 
22:30	27.8	27.8	27.8	75	20.9	2	5	248	0.00	29.995 
22:35	27.8	27.8	27.8	74	20.6	2	6	270	0.00	29.994 
22:40	27.9	27.9	27.9	74	20.7	1	7	270	0.00	29.991 
22:45	27.9	27.9	27.9	74	20.7	2	4	270	0.00	29.988 
22:50	28.1	28.1	28.1	73	20.6	2	6	270	0.00	29.990 
22:55	28.1	28.1	28.1	73	20.6	3	9	270	0.00	29.991 
23:00	28.1	28.1	28.1	73	20.6	3	10	270	0.00	29.989 
23:05	28.1	28.1	28.1	73	20.6	2	5	270	0.00	29.989 
23:10	28.1	28.1	28.1	73	20.6	2	7	270	0.00	29.987 
23:15	28.2	28.2	28.2	73	20.7	3	11	270	0.00	29.986 
23:20	28.4	28.4	28.4	72	20.5	2	6	270	0.00	29.985 
23:25	28.4	28.4	28.4	72	20.5	2	7	270	0.00	29.986 
23:30	28.5	28.5	28.5	71	20.3	2	5	248	0.00	29.983 
23:35	28.5	28.5	28.5	70	20.0	3	9	270	0.00	29.984 
23:40	28.7	28.7	28.7	69	19.8	2	7	270	0.00	29.984 
23:45	28.8	28.8	28.8	69	19.9	2	4	270	0.00	29.984 
23:50	29.0	29.0	29.0	67	19.4	3	6	270	0.00	29.984 
23:55	29.1	24.7	29.1	66	19.2	4	9	270	0.00	29.986 

CoCoRaHS
IN-AL-39
A2 Web Hosting
Creative Commons License
GoDaddy
Look for:

loaded 2017-12-13 19:59:22 • last modified 2010-11-18 10:43:29
Privacy PolicyDisclaimer
• wx.awcolley.com is powered by PmWiki v.2002016 •
• all content (unless otherwise noted) © 2017 A W Colley